Annis, ID

2:56 AM MDT on October 26, 2014 (GMT -0600)
Driggs | Change Station
CLOSE
Current Station
Airport
Location: Driggs,
Elevation: 6227 ft
Nearby Weather Stations
Active Advisory: Wind Advisory Active Notice: Record Report, Local Storm Report

Elev 6227 ft 43.74 °N, 111.10 °W | Updated 24 minutes ago

Overcast
Overcast
43 °F
Feels Like 35 °F
N
15
Wind Variable Wind from South
Gusts 22 mph

Today
High -- | Low -- °F
--% Chance of Precip.
Yesterday
High -- | Low -- °F
Precip. -- in
7:55 AM 6:26 PM
Waxing Crescent, 7% visible
Pressure 30.01 in
Visibility 4.0 miles
Clouds Few 100 ft
Scattered Clouds 2700 ft
Overcast 3400 ft
Windchill 35 °F
Dew Point 37 °F
Humidity 81%
Rainfall 0.02 in
Snow Depth Not available.
UV 0 out of 12
Pollen 3.20 out of 12
PM2.5 Good
Flu Activity No Activity
SPECI KDIJ 260832Z AUTO 18013G19KT 4SM -RA FEW001 SCT027 OVC034 06/03 A3001 RMK AO2 RAB0758 P0001

More Conditions Fewer Conditions

Pressure 30.01 in
Visibility 4.0 miles
Clouds Few 100 ft
Scattered Clouds 2700 ft
Overcast 3400 ft
Windchill 35 °F
Dew Point 37 °F
Humidity 81%
Rainfall 0.02 in
Snow Depth Not available.
UV 0 out of 12
Pollen 3.20 out of 12
PM2.5 Good
Flu Activity No Activity
SPECI KDIJ 260832Z AUTO 18013G19KT 4SM -RA FEW001 SCT027 OVC034 06/03 A3001 RMK AO2 RAB0758 P0001

More Conditions Fewer Conditions

10-Day Weather Forecast

Almanac

Astronomy

Oct. 26, 2014 Rise Set
Actual Time 7:55 AM MDT 6:26 PM MDT
Civil Twilight 7:26 AM MDT 6:56 PM MDT
Nautical Twilight 6:52 AM MDT 7:29 PM MDT
Astronomical Twilight 6:19 AM MDT 8:02 PM MDT
Moon 10:40 AM MDT 8:37 PM MDT
Length of Visible Light 11h 29m
Length of Day
10h 30m
Tomorrow will be 2m 45s shorter.
Waxing Crescent, 7% of the Moon is Illuminated
Today
Waxing Crescent
Oct 30
First Quarter
Nov 6
Full
Nov 14
Last Quarter
Nov 22
New

Today's Extremes

State Highs State Lows

Community

WunderPhotos

Upload Photos

1,765,127 photos uploaded!

Nearby

Air Quality

  Air Quality AQ Index Pollutant
Yesterday Good
PM2.5
Current Good
PM2.5
Sunday Good
PM2.5
Monday Good
PM2.5

Snow Depth

Station Depth Elevation
Sheep Mountain 0 in 6570 ft
Pine Creek Pass 0 in 6720 ft
Crab Creek 0 in 6860 ft
Island Park 0 in 6290 ft
Somsen Ranch 0 in 6800 ft

Earthquake Activity

City Distance Mag. Time & Date
No recent earthquake activity has been reported nearby.
Minimum magnitude displayed is 2.5.

Coastal Water Temperatures

Place Temperature
No Stations Reporting

Nearby Weather Stations